sensor_id;sensor_type;location;lat;lon;timestamp;pressure;altitude;pressure_sealevel;temperature
24714;BMP280;12820;51.580;5.010;2023-11-22T00:00:44;102793.28;;;7.79
24714;BMP280;12820;51.580;5.010;2023-11-22T00:05:46;102805.66;;;7.73
24714;BMP280;12820;51.580;5.010;2023-11-22T00:10:49;102802.16;;;7.68
24714;BMP280;12820;51.580;5.010;2023-11-22T00:15:51;102808.69;;;7.63
24714;BMP280;12820;51.580;5.010;2023-11-22T00:20:53;102798.50;;;7.57
24714;BMP280;12820;51.580;5.010;2023-11-22T00:25:56;102810.03;;;7.52
24714;BMP280;12820;51.580;5.010;2023-11-22T00:30:59;102810.66;;;7.45
24714;BMP280;12820;51.580;5.010;2023-11-22T00:36:01;102812.22;;;7.42
24714;BMP280;12820;51.580;5.010;2023-11-22T00:41:06;102819.59;;;7.38
24714;BMP280;12820;51.580;5.010;2023-11-22T00:46:10;102813.66;;;7.34
24714;BMP280;12820;51.580;5.010;2023-11-22T00:51:12;102816.84;;;7.29
24714;BMP280;12820;51.580;5.010;2023-11-22T00:56:15;102810.00;;;7.24
24714;BMP280;12820;51.580;5.010;2023-11-22T01:01:17;102820.59;;;7.17
24714;BMP280;12820;51.580;5.010;2023-11-22T01:06:20;102828.81;;;7.13
24714;BMP280;12820;51.580;5.010;2023-11-22T01:11:22;102832.81;;;7.07
24714;BMP280;12820;51.580;5.010;2023-11-22T01:16:24;102856.81;;;7.02
24714;BMP280;12820;51.580;5.010;2023-11-22T01:21:26;102867.56;;;6.99
24714;BMP280;12820;51.580;5.010;2023-11-22T01:26:28;102876.63;;;6.96
24714;BMP280;12820;51.580;5.010;2023-11-22T01:31:31;102891.50;;;6.93
24714;BMP280;12820;51.580;5.010;2023-11-22T01:36:34;102898.91;;;6.90
24714;BMP280;12820;51.580;5.010;2023-11-22T01:41:37;102902.97;;;6.87
24714;BMP280;12820;51.580;5.010;2023-11-22T01:46:40;102912.91;;;6.85
24714;BMP280;12820;51.580;5.010;2023-11-22T01:51:43;102903.63;;;6.81
24714;BMP280;12820;51.580;5.010;2023-11-22T01:56:48;102902.63;;;6.76
24714;BMP280;12820;51.580;5.010;2023-11-22T02:01:50;102894.13;;;6.72
24714;BMP280;12820;51.580;5.010;2023-11-22T02:06:52;102907.34;;;6.69
24714;BMP280;12820;51.580;5.010;2023-11-22T02:11:55;102900.56;;;6.65
24714;BMP280;12820;51.580;5.010;2023-11-22T02:16:57;102895.41;;;6.61
24714;BMP280;12820;51.580;5.010;2023-11-22T02:22:01;102909.50;;;6.59
24714;BMP280;12820;51.580;5.010;2023-11-22T02:27:04;102917.66;;;6.55
24714;BMP280;12820;51.580;5.010;2023-11-22T02:32:06;102918.44;;;6.53
24714;BMP280;12820;51.580;5.010;2023-11-22T02:37:08;102918.34;;;6.50
24714;BMP280;12820;51.580;5.010;2023-11-22T02:42:11;102914.06;;;6.47
24714;BMP280;12820;51.580;5.010;2023-11-22T02:47:13;102906.50;;;6.44
24714;BMP280;12820;51.580;5.010;2023-11-22T02:52:15;102903.84;;;6.40
24714;BMP280;12820;51.580;5.010;2023-11-22T02:57:18;102897.81;;;6.35
24714;BMP280;12820;51.580;5.010;2023-11-22T03:02:20;102903.50;;;6.31
24714;BMP280;12820;51.580;5.010;2023-11-22T03:07:22;102907.53;;;6.28
24714;BMP280;12820;51.580;5.010;2023-11-22T03:12:24;102903.16;;;6.21
24714;BMP280;12820;51.580;5.010;2023-11-22T03:17:29;102900.53;;;6.18
24714;BMP280;12820;51.580;5.010;2023-11-22T03:22:32;102902.13;;;6.16
24714;BMP280;12820;51.580;5.010;2023-11-22T03:27:36;102916.13;;;6.13
24714;BMP280;12820;51.580;5.010;2023-11-22T03:32:39;102923.59;;;6.11
24714;BMP280;12820;51.580;5.010;2023-11-22T03:37:41;102925.06;;;6.06
24714;BMP280;12820;51.580;5.010;2023-11-22T03:42:44;102936.53;;;6.02
24714;BMP280;12820;51.580;5.010;2023-11-22T03:47:49;102954.66;;;5.98
24714;BMP280;12820;51.580;5.010;2023-11-22T03:52:51;102967.81;;;5.94
24714;BMP280;12820;51.580;5.010;2023-11-22T03:57:53;102987.69;;;5.91
24714;BMP280;12820;51.580;5.010;2023-11-22T04:02:55;102991.75;;;5.89
24714;BMP280;12820;51.580;5.010;2023-11-22T04:08:01;102995.84;;;5.87
24714;BMP280;12820;51.580;5.010;2023-11-22T04:13:03;103001.56;;;5.85
24714;BMP280;12820;51.580;5.010;2023-11-22T04:18:06;103004.84;;;5.84
24714;BMP280;12820;51.580;5.010;2023-11-22T04:23:09;103004.84;;;5.84
24714;BMP280;12820;51.580;5.010;2023-11-22T04:28:12;103007.31;;;5.82
24714;BMP280;12820;51.580;5.010;2023-11-22T04:33:16;103019.00;;;5.83
24714;BMP280;12820;51.580;5.010;2023-11-22T04:38:19;103014.81;;;5.82
24714;BMP280;12820;51.580;5.010;2023-11-22T04:43:21;103024.78;;;5.82
24714;BMP280;12820;51.580;5.010;2023-11-22T04:48:23;103021.44;;;5.82
24714;BMP280;12820;51.580;5.010;2023-11-22T04:53:26;103023.13;;;5.83
24714;BMP280;12820;51.580;5.010;2023-11-22T04:58:28;103043.13;;;5.84
24714;BMP280;12820;51.580;5.010;2023-11-22T05:03:30;103039.94;;;5.86
24714;BMP280;12820;51.580;5.010;2023-11-22T05:08:33;103035.00;;;5.88
24714;BMP280;12820;51.580;5.010;2023-11-22T05:13:36;103032.53;;;5.89
24714;BMP280;12820;51.580;5.010;2023-11-22T05:18:38;103030.13;;;5.91
24714;BMP280;12820;51.580;5.010;2023-11-22T05:23:41;103014.34;;;5.92
24714;BMP280;12820;51.580;5.010;2023-11-22T05:28:47;103023.66;;;5.96
24714;BMP280;12820;51.580;5.010;2023-11-22T05:33:50;103022.97;;;6.00
24714;BMP280;12820;51.580;5.010;2023-11-22T05:38:52;103028.88;;;6.02
24714;BMP280;12820;51.580;5.010;2023-11-22T05:43:54;103019.78;;;6.03
24714;BMP280;12820;51.580;5.010;2023-11-22T05:48:57;103028.13;;;6.04
24714;BMP280;12820;51.580;5.010;2023-11-22T05:53:59;103044.06;;;6.07
24714;BMP280;12820;51.580;5.010;2023-11-22T05:59:01;103047.50;;;6.09
24714;BMP280;12820;51.580;5.010;2023-11-22T06:04:03;103040.06;;;6.11
24714;BMP280;12820;51.580;5.010;2023-11-22T06:09:06;103046.81;;;6.13
24714;BMP280;12820;51.580;5.010;2023-11-22T06:14:09;103061.94;;;6.16
24714;BMP280;12820;51.580;5.010;2023-11-22T06:19:11;103061.19;;;6.19
24714;BMP280;12820;51.580;5.010;2023-11-22T06:24:13;103062.09;;;6.21
24714;BMP280;12820;51.580;5.010;2023-11-22T06:29:18;103067.19;;;6.23
24714;BMP280;12820;51.580;5.010;2023-11-22T06:34:20;103070.56;;;6.24
24714;BMP280;12820;51.580;5.010;2023-11-22T06:39:22;103088.94;;;6.26
24714;BMP280;12820;51.580;5.010;2023-11-22T06:44:27;103082.28;;;6.26
24714;BMP280;12820;51.580;5.010;2023-11-22T06:49:29;103071.50;;;6.27
24714;BMP280;12820;51.580;5.010;2023-11-22T06:54:31;103063.22;;;6.28
24714;BMP280;12820;51.580;5.010;2023-11-22T06:59:34;103052.50;;;6.31
24714;BMP280;12820;51.580;5.010;2023-11-22T07:04:36;103050.06;;;6.32
24714;BMP280;12820;51.580;5.010;2023-11-22T07:09:43;103060.19;;;6.35
24714;BMP280;12820;51.580;5.010;2023-11-22T07:14:45;103056.94;;;6.38
24714;BMP280;12820;51.580;5.010;2023-11-22T07:19:48;103047.97;;;6.42
24714;BMP280;12820;51.580;5.010;2023-11-22T07:24:50;103060.53;;;6.45
24714;BMP280;12820;51.580;5.010;2023-11-22T07:30:03;103066.56;;;6.50
24714;BMP280;12820;51.580;5.010;2023-11-22T07:35:06;103071.78;;;6.56
24714;BMP280;12820;51.580;5.010;2023-11-22T07:40:10;103067.03;;;6.62
24714;BMP280;12820;51.580;5.010;2023-11-22T07:45:15;103057.25;;;6.68
24714;BMP280;12820;51.580;5.010;2023-11-22T07:50:18;103075.75;;;6.73
24714;BMP280;12820;51.580;5.010;2023-11-22T07:55:21;103090.00;;;6.75
24714;BMP280;12820;51.580;5.010;2023-11-22T08:00:24;103103.34;;;6.75
24714;BMP280;12820;51.580;5.010;2023-11-22T08:05:26;103112.63;;;6.78
24714;BMP280;12820;51.580;5.010;2023-11-22T08:10:29;103111.09;;;6.81
24714;BMP280;12820;51.580;5.010;2023-11-22T08:15:31;103109.59;;;6.86
24714;BMP280;12820;51.580;5.010;2023-11-22T08:20:34;103116.50;;;6.93
24714;BMP280;12820;51.580;5.010;2023-11-22T08:25:36;103130.94;;;7.00
24714;BMP280;12820;51.580;5.010;2023-11-22T08:30:42;103129.53;;;7.06
24714;BMP280;12820;51.580;5.010;2023-11-22T08:35:44;103126.34;;;7.11
24714;BMP280;12820;51.580;5.010;2023-11-22T08:40:52;103136.63;;;7.19
24714;BMP280;12820;51.580;5.010;2023-11-22T08:45:54;103139.53;;;7.29
24714;BMP280;12820;51.580;5.010;2023-11-22T08:51:12;103145.69;;;7.38
24714;BMP280;12820;51.580;5.010;2023-11-22T08:56:15;103150.22;;;7.48
24714;BMP280;12820;51.580;5.010;2023-11-22T09:01:18;103141.38;;;7.57
24714;BMP280;12820;51.580;5.010;2023-11-22T09:06:20;103132.56;;;7.68
24714;BMP280;12820;51.580;5.010;2023-11-22T09:11:23;103129.75;;;7.83
24714;BMP280;12820;51.580;5.010;2023-11-22T09:16:26;103142.84;;;7.99
24714;BMP280;12820;51.580;5.010;2023-11-22T09:21:29;103147.47;;;8.14
24714;BMP280;12820;51.580;5.010;2023-11-22T09:26:31;103152.78;;;8.22
24714;BMP280;12820;51.580;5.010;2023-11-22T09:31:35;103148.91;;;8.32
24714;BMP280;12820;51.580;5.010;2023-11-22T09:36:37;103147.50;;;8.39
24714;BMP280;12820;51.580;5.010;2023-11-22T09:41:39;103153.72;;;8.52
24714;BMP280;12820;51.580;5.010;2023-11-22T09:46:42;103152.28;;;8.59
24714;BMP280;12820;51.580;5.010;2023-11-22T09:51:46;103158.41;;;8.67
24714;BMP280;12820;51.580;5.010;2023-11-22T09:56:50;103161.88;;;8.72
24714;BMP280;12820;51.580;5.010;2023-11-22T10:01:54;103151.13;;;8.76
24714;BMP280;12820;51.580;5.010;2023-11-22T10:06:57;103158.84;;;8.82
24714;BMP280;12820;51.580;5.010;2023-11-22T10:12:03;103153.97;;;8.87
24714;BMP280;12820;51.580;5.010;2023-11-22T10:17:07;103165.09;;;8.95
24714;BMP280;12820;51.580;5.010;2023-11-22T10:22:10;103174.47;;;9.02
24714;BMP280;12820;51.580;5.010;2023-11-22T10:27:12;103175.47;;;9.07
24714;BMP280;12820;51.580;5.010;2023-11-22T10:32:16;103151.28;;;9.09
24714;BMP280;12820;51.580;5.010;2023-11-22T10:37:18;103134.59;;;9.11
24714;BMP280;12820;51.580;5.010;2023-11-22T10:42:22;103136.34;;;9.13
24714;BMP280;12820;51.580;5.010;2023-11-22T10:47:26;103124.78;;;9.18
24714;BMP280;12820;51.580;5.010;2023-11-22T10:52:29;103118.22;;;9.23
24714;BMP280;12820;51.580;5.010;2023-11-22T10:57:37;103117.53;;;9.28
24714;BMP280;12820;51.580;5.010;2023-11-22T11:02:47;103110.97;;;9.33
24714;BMP280;12820;51.580;5.010;2023-11-22T11:08:07;103101.06;;;9.39
24714;BMP280;12820;51.580;5.010;2023-11-22T11:13:13;103091.19;;;9.45
24714;BMP280;12820;51.580;5.010;2023-11-22T11:18:16;103094.03;;;9.58
24714;BMP280;12820;51.580;5.010;2023-11-22T11:23:20;103097.63;;;9.66
24714;BMP280;12820;51.580;5.010;2023-11-22T11:28:25;103090.25;;;9.73
24714;BMP280;12820;51.580;5.010;2023-11-22T11:33:34;103069.44;;;9.77
24714;BMP280;12820;51.580;5.010;2023-11-22T11:38:37;103055.34;;;9.82
24714;BMP280;12820;51.580;5.010;2023-11-22T11:43:46;103039.56;;;9.87
24714;BMP280;12820;51.580;5.010;2023-11-22T11:48:50;103042.19;;;9.92
24714;BMP280;12820;51.580;5.010;2023-11-22T11:53:56;103020.41;;;9.92
24714;BMP280;12820;51.580;5.010;2023-11-22T11:58:58;103016.25;;;9.91
24714;BMP280;12820;51.580;5.010;2023-11-22T12:04:02;103019.50;;;9.89
24714;BMP280;12820;51.580;5.010;2023-11-22T12:09:05;103017.81;;;9.88
24714;BMP280;12820;51.580;5.010;2023-11-22T12:14:07;103039.47;;;9.83
24714;BMP280;12820;51.580;5.010;2023-11-22T12:19:10;103024.34;;;9.80
24714;BMP280;12820;51.580;5.010;2023-11-22T12:24:13;103023.28;;;9.72
24714;BMP280;12820;51.580;5.010;2023-11-22T12:29:17;103025.50;;;9.60
24714;BMP280;12820;51.580;5.010;2023-11-22T12:34:23;103024.44;;;9.51
24714;BMP280;12820;51.580;5.010;2023-11-22T12:39:28;103018.38;;;9.43
24714;BMP280;12820;51.580;5.010;2023-11-22T12:44:30;103029.97;;;9.39
24714;BMP280;12820;51.580;5.010;2023-11-22T12:49:43;103025.81;;;9.40
24714;BMP280;12820;51.580;5.010;2023-11-22T12:54:47;103010.03;;;9.44
24714;BMP280;12820;51.580;5.010;2023-11-22T12:59:50;102990.19;;;9.53
24714;BMP280;12820;51.580;5.010;2023-11-22T13:04:52;102963.63;;;9.64
24714;BMP280;12820;51.580;5.010;2023-11-22T13:09:54;102969.59;;;9.69
24714;BMP280;12820;51.580;5.010;2023-11-22T13:14:57;102973.91;;;9.74
24714;BMP280;12820;51.580;5.010;2023-11-22T13:19:59;102964.81;;;9.77
24714;BMP280;12820;51.580;5.010;2023-11-22T13:25:02;102952.22;;;9.76
24714;BMP280;12820;51.580;5.010;2023-11-22T13:30:05;102949.63;;;9.73
24714;BMP280;12820;51.580;5.010;2023-11-22T13:35:07;102948.72;;;9.70
24714;BMP280;12820;51.580;5.010;2023-11-22T13:40:18;102959.50;;;9.66
24714;BMP280;12820;51.580;5.010;2023-11-22T13:45:23;102958.63;;;9.64
24714;BMP280;12820;51.580;5.010;2023-11-22T13:50:26;102945.91;;;9.58
24714;BMP280;12820;51.580;5.010;2023-11-22T13:55:29;102950.84;;;9.54
24714;BMP280;12820;51.580;5.010;2023-11-22T14:00:31;102969.16;;;9.50
24714;BMP280;12820;51.580;5.010;2023-11-22T14:05:37;102962.31;;;9.44
24714;BMP280;12820;51.580;5.010;2023-11-22T14:10:41;102967.25;;;9.40
24714;BMP280;12820;51.580;5.010;2023-11-22T14:15:43;102960.41;;;9.33
24714;BMP280;12820;51.580;5.010;2023-11-22T14:20:45;102954.38;;;9.27
24714;BMP280;12820;51.580;5.010;2023-11-22T14:25:47;102950.00;;;9.19
24714;BMP280;12820;51.580;5.010;2023-11-22T14:30:50;102933.06;;;9.12
24714;BMP280;12820;51.580;5.010;2023-11-22T14:35:56;102929.59;;;9.05
24714;BMP280;12820;51.580;5.010;2023-11-22T14:40:58;102911.88;;;9.00
24714;BMP280;12820;51.580;5.010;2023-11-22T14:46:00;102907.59;;;8.96
24714;BMP280;12820;51.580;5.010;2023-11-22T14:51:03;102920.03;;;8.93
24714;BMP280;12820;51.580;5.010;2023-11-22T14:56:06;102925.00;;;8.90
24714;BMP280;12820;51.580;5.010;2023-11-22T15:01:09;102909.03;;;8.87
24714;BMP280;12820;51.580;5.010;2023-11-22T15:06:11;102902.22;;;8.83
24714;BMP280;12820;51.580;5.010;2023-11-22T15:11:14;102890.47;;;8.80
24714;BMP280;12820;51.580;5.010;2023-11-22T15:16:17;102913.00;;;8.79
24714;BMP280;12820;51.580;5.010;2023-11-22T15:21:20;102914.53;;;8.74
24714;BMP280;12820;51.580;5.010;2023-11-22T15:26:23;102925.28;;;8.70
24714;BMP280;12820;51.580;5.010;2023-11-22T15:31:25;102956.97;;;8.67
24714;BMP280;12820;51.580;5.010;2023-11-22T15:36:27;102976.13;;;8.65
24714;BMP280;12820;51.580;5.010;2023-11-22T15:41:29;102966.03;;;8.62
24714;BMP280;12820;51.580;5.010;2023-11-22T15:46:32;102941.81;;;8.62
24714;BMP280;12820;51.580;5.010;2023-11-22T15:51:35;102920.81;;;8.59
24714;BMP280;12820;51.580;5.010;2023-11-22T15:56:37;102906.56;;;8.56
24714;BMP280;12820;51.580;5.010;2023-11-22T16:01:39;102897.28;;;8.54
24714;BMP280;12820;51.580;5.010;2023-11-22T16:06:42;102893.91;;;8.52
24714;BMP280;12820;51.580;5.010;2023-11-22T16:11:44;102857.06;;;8.50
24714;BMP280;12820;51.580;5.010;2023-11-22T16:16:46;102837.84;;;8.49
24714;BMP280;12820;51.580;5.010;2023-11-22T16:21:49;102822.72;;;8.46
24714;BMP280;12820;51.580;5.010;2023-11-22T16:26:51;102831.03;;;8.45
24714;BMP280;12820;51.580;5.010;2023-11-22T16:31:54;102883.59;;;8.42
24714;BMP280;12820;51.580;5.010;2023-11-22T16:36:56;102848.50;;;8.42
24714;BMP280;12820;51.580;5.010;2023-11-22T16:41:58;102844.31;;;8.41
24714;BMP280;12820;51.580;5.010;2023-11-22T16:47:02;102855.13;;;8.40
24714;BMP280;12820;51.580;5.010;2023-11-22T16:52:09;102832.56;;;8.40
24714;BMP280;12820;51.580;5.010;2023-11-22T16:57:11;102816.72;;;8.39
24714;BMP280;12820;51.580;5.010;2023-11-22T17:02:17;102821.69;;;8.38
24714;BMP280;12820;51.580;5.010;2023-11-22T17:07:20;102811.66;;;8.38
24714;BMP280;12820;51.580;5.010;2023-11-22T17:12:22;102800.78;;;8.37
24714;BMP280;12820;51.580;5.010;2023-11-22T17:17:24;102809.16;;;8.38
24714;BMP280;12820;51.580;5.010;2023-11-22T17:22:30;102805.78;;;8.37
24714;BMP280;12820;51.580;5.010;2023-11-22T17:27:32;102795.81;;;8.39
24714;BMP280;12820;51.580;5.010;2023-11-22T17:32:50;102796.69;;;8.41
24714;BMP280;12820;51.580;5.010;2023-11-22T17:37:52;102795.94;;;8.45
24714;BMP280;12820;51.580;5.010;2023-11-22T17:42:59;102806.88;;;8.47
24714;BMP280;12820;51.580;5.010;2023-11-22T17:48:03;102796.06;;;8.49
24714;BMP280;12820;51.580;5.010;2023-11-22T17:53:06;102797.00;;;8.52
24714;BMP280;12820;51.580;5.010;2023-11-22T17:58:08;102786.16;;;8.53
24714;BMP280;12820;51.580;5.010;2023-11-22T18:03:10;102804.53;;;8.52
24714;BMP280;12820;51.580;5.010;2023-11-22T18:08:12;102783.66;;;8.53
24714;BMP280;12820;51.580;5.010;2023-11-22T18:13:16;102778.56;;;8.51
24714;BMP280;12820;51.580;5.010;2023-11-22T18:18:18;102790.19;;;8.47
24714;BMP280;12820;51.580;5.010;2023-11-22T18:23:21;102788.41;;;8.43
24714;BMP280;12820;51.580;5.010;2023-11-22T18:28:26;102778.34;;;8.42
24714;BMP280;12820;51.580;5.010;2023-11-22T18:33:28;102777.53;;;8.43
24714;BMP280;12820;51.580;5.010;2023-11-22T18:38:31;102781.66;;;8.41
24714;BMP280;12820;51.580;5.010;2023-11-22T18:43:33;102750.72;;;8.39
24714;BMP280;12820;51.580;5.010;2023-11-22T18:48:36;102739.00;;;8.38
24714;BMP280;12820;51.580;5.010;2023-11-22T18:53:38;102726.41;;;8.36
24714;BMP280;12820;51.580;5.010;2023-11-22T18:58:41;102723.84;;;8.34
24714;BMP280;12820;51.580;5.010;2023-11-22T19:03:43;102717.94;;;8.32
24714;BMP280;12820;51.580;5.010;2023-11-22T19:08:45;102727.13;;;8.31
24714;BMP280;12820;51.580;5.010;2023-11-22T19:13:47;102731.25;;;8.29
24714;BMP280;12820;51.580;5.010;2023-11-22T19:18:51;102727.84;;;8.27
24714;BMP280;12820;51.580;5.010;2023-11-22T19:23:53;102727.06;;;8.28
24714;BMP280;12820;51.580;5.010;2023-11-22T19:28:56;102725.34;;;8.27
24714;BMP280;12820;51.580;5.010;2023-11-22T19:33:58;102724.44;;;8.25
24714;BMP280;12820;51.580;5.010;2023-11-22T19:39:00;102713.56;;;8.23
24714;BMP280;12820;51.580;5.010;2023-11-22T19:44:02;102706.00;;;8.22
24714;BMP280;12820;51.580;5.010;2023-11-22T19:49:05;102696.03;;;8.23
24714;BMP280;12820;51.580;5.010;2023-11-22T19:54:08;102697.75;;;8.26
24714;BMP280;12820;51.580;5.010;2023-11-22T19:59:11;102699.56;;;8.31
24714;BMP280;12820;51.580;5.010;2023-11-22T20:04:13;102694.63;;;8.34
24714;BMP280;12820;51.580;5.010;2023-11-22T20:09:16;102683.88;;;8.38
24714;BMP280;12820;51.580;5.010;2023-11-22T20:14:20;102684.81;;;8.43
24714;BMP280;12820;51.580;5.010;2023-11-22T20:19:22;102692.50;;;8.49
24714;BMP280;12820;51.580;5.010;2023-11-22T20:24:24;102685.13;;;8.56
24714;BMP280;12820;51.580;5.010;2023-11-22T20:29:26;102688.59;;;8.61
24714;BMP280;12820;51.580;5.010;2023-11-22T20:34:29;102685.31;;;8.65
24714;BMP280;12820;51.580;5.010;2023-11-22T20:39:31;102667.88;;;8.69
24714;BMP280;12820;51.580;5.010;2023-11-22T20:44:34;102668.88;;;8.75
24714;BMP280;12820;51.580;5.010;2023-11-22T20:49:36;102679.81;;;8.79
24714;BMP280;12820;51.580;5.010;2023-11-22T20:54:39;102685.75;;;8.84
24714;BMP280;12820;51.580;5.010;2023-11-22T20:59:41;102675.88;;;8.89
24714;BMP280;12820;51.580;5.010;2023-11-22T21:04:44;102660.88;;;8.92
24714;BMP280;12820;51.580;5.010;2023-11-22T21:09:47;102655.13;;;8.96
24714;BMP280;12820;51.580;5.010;2023-11-22T21:14:50;102659.41;;;9.00
24714;BMP280;12820;51.580;5.010;2023-11-22T21:19:53;102665.34;;;9.05
24714;BMP280;12820;51.580;5.010;2023-11-22T21:24:55;102645.34;;;9.08
24714;BMP280;12820;51.580;5.010;2023-11-22T21:29:57;102637.03;;;9.12
24714;BMP280;12820;51.580;5.010;2023-11-22T21:34:59;102647.16;;;9.15
24714;BMP280;12820;51.580;5.010;2023-11-22T21:40:02;102630.44;;;9.17
24714;BMP280;12820;51.580;5.010;2023-11-22T21:45:12;102624.66;;;9.19
24714;BMP280;12820;51.580;5.010;2023-11-22T21:50:14;102608.00;;;9.23
24714;BMP280;12820;51.580;5.010;2023-11-22T21:55:17;102607.22;;;9.26
24714;BMP280;12820;51.580;5.010;2023-11-22T22:00:19;102599.78;;;9.29
24714;BMP280;12820;51.580;5.010;2023-11-22T22:05:21;102601.53;;;9.33
24714;BMP280;12820;51.580;5.010;2023-11-22T22:10:23;102599.91;;;9.37
24714;BMP280;12820;51.580;5.010;2023-11-22T22:15:25;102598.28;;;9.39
24714;BMP280;12820;51.580;5.010;2023-11-22T22:20:27;102609.13;;;9.39
24714;BMP280;12820;51.580;5.010;2023-11-22T22:25:33;102601.66;;;9.40
24714;BMP280;12820;51.580;5.010;2023-11-22T22:30:36;102595.00;;;9.42
24714;BMP280;12820;51.580;5.010;2023-11-22T22:35:39;102600.03;;;9.44
24714;BMP280;12820;51.580;5.010;2023-11-22T22:40:42;102595.91;;;9.46
24714;BMP280;12820;51.580;5.010;2023-11-22T22:45:44;102589.25;;;9.48
24714;BMP280;12820;51.580;5.010;2023-11-22T22:50:46;102578.38;;;9.49
24714;BMP280;12820;51.580;5.010;2023-11-22T22:55:49;102568.38;;;9.50
24714;BMP280;12820;51.580;5.010;2023-11-22T23:00:51;102579.28;;;9.52
24714;BMP280;12820;51.580;5.010;2023-11-22T23:05:53;102572.59;;;9.54
24714;BMP280;12820;51.580;5.010;2023-11-22T23:10:55;102580.19;;;9.56
24714;BMP280;12820;51.580;5.010;2023-11-22T23:15:58;102584.34;;;9.55
24714;BMP280;12820;51.580;5.010;2023-11-22T23:21:00;102587.72;;;9.56
24714;BMP280;12820;51.580;5.010;2023-11-22T23:26:03;102578.50;;;9.56
24714;BMP280;12820;51.580;5.010;2023-11-22T23:31:05;102573.53;;;9.58
24714;BMP280;12820;51.580;5.010;2023-11-22T23:36:08;102561.78;;;9.58
24714;BMP280;12820;51.580;5.010;2023-11-22T23:41:10;102557.66;;;9.60
24714;BMP280;12820;51.580;5.010;2023-11-22T23:46:12;102553.53;;;9.62
24714;BMP280;12820;51.580;5.010;2023-11-22T23:51:15;102551.00;;;9.63
24714;BMP280;12820;51.580;5.010;2023-11-22T23:56:17;102556.91;;;9.65
